sensor_id;sensor_type;location;lat;lon;timestamp;temperature;humidity
54264;DHT22;40178;53.042;6.406;2023-06-10T00:01:24;16.70;30.50
54264;DHT22;40178;53.042;6.406;2023-06-10T00:03:50;16.70;1.00
54264;DHT22;40178;53.042;6.406;2023-06-10T00:06:17;16.70;1.00
54264;DHT22;40178;53.042;6.406;2023-06-10T00:08:43;16.60;1.00
54264;DHT22;40178;53.042;6.406;2023-06-10T00:11:09;16.60;1.00
54264;DHT22;40178;53.042;6.406;2023-06-10T00:13:35;16.70;99.90
54264;DHT22;40178;53.042;6.406;2023-06-10T00:16:02;16.70;99.90
54264;DHT22;40178;53.042;6.406;2023-06-10T00:18:28;16.70;90.80
54264;DHT22;40178;53.042;6.406;2023-06-10T00:20:57;16.60;99.90
54264;DHT22;40178;53.042;6.406;2023-06-10T00:23:28;16.60;1.00
54264;DHT22;40178;53.042;6.406;2023-06-10T00:25:57;16.60;1.00
54264;DHT22;40178;53.042;6.406;2023-06-10T00:28:23;16.60;1.00
54264;DHT22;40178;53.042;6.406;2023-06-10T00:30:48;16.80;1.00
54264;DHT22;40178;53.042;6.406;2023-06-10T00:33:14;16.60;29.90
54264;DHT22;40178;53.042;6.406;2023-06-10T00:35:40;16.40;1.00
54264;DHT22;40178;53.042;6.406;2023-06-10T00:38:05;16.60;99.90
54264;DHT22;40178;53.042;6.406;2023-06-10T00:40:33;16.40;99.90
54264;DHT22;40178;53.042;6.406;2023-06-10T00:43:04;16.30;99.90
54264;DHT22;40178;53.042;6.406;2023-06-10T00:45:29;16.40;58.00
54264;DHT22;40178;53.042;6.406;2023-06-10T00:47:55;16.20;90.60
54264;DHT22;40178;53.042;6.406;2023-06-10T00:50:24;16.20;99.90
54264;DHT22;40178;53.042;6.406;2023-06-10T00:52:50;16.40;44.70
54264;DHT22;40178;53.042;6.406;2023-06-10T00:55:17;16.20;99.90
54264;DHT22;40178;53.042;6.406;2023-06-10T00:57:45;16.20;99.90
54264;DHT22;40178;53.042;6.406;2023-06-10T01:00:11;16.30;99.90
54264;DHT22;40178;53.042;6.406;2023-06-10T01:02:38;16.10;99.70
54264;DHT22;40178;53.042;6.406;2023-06-10T01:05:04;16.30;99.90
54264;DHT22;40178;53.042;6.406;2023-06-10T01:08:01;16.00;99.90
54264;DHT22;40178;53.042;6.406;2023-06-10T01:10:57;16.00;1.00
54264;DHT22;40178;53.042;6.406;2023-06-10T01:13:25;15.90;99.90
54264;DHT22;40178;53.042;6.406;2023-06-10T01:15:54;16.10;1.00
54264;DHT22;40178;53.042;6.406;2023-06-10T01:18:20;15.90;99.90
54264;DHT22;40178;53.042;6.406;2023-06-10T01:20:47;15.80;1.00
54264;DHT22;40178;53.042;6.406;2023-06-10T01:23:15;15.80;58.10
54264;DHT22;40178;53.042;6.406;2023-06-10T01:26:04;15.80;35.70
54264;DHT22;40178;53.042;6.406;2023-06-10T01:34:00;15.40;1.00
54264;DHT22;40178;53.042;6.406;2023-06-10T01:36:27;15.30;99.90
54264;DHT22;40178;53.042;6.406;2023-06-10T01:38:53;15.30;1.00
54264;DHT22;40178;53.042;6.406;2023-06-10T01:41:19;15.10;99.90
54264;DHT22;40178;53.042;6.406;2023-06-10T01:43:47;15.50;1.00
54264;DHT22;40178;53.042;6.406;2023-06-10T01:46:14;15.20;1.00
54264;DHT22;40178;53.042;6.406;2023-06-10T01:48:41;15.10;17.40
54264;DHT22;40178;53.042;6.406;2023-06-10T01:51:14;15.10;64.30
54264;DHT22;40178;53.042;6.406;2023-06-10T01:53:44;14.90;1.00
54264;DHT22;40178;53.042;6.406;2023-06-10T01:56:13;14.80;1.00
54264;DHT22;40178;53.042;6.406;2023-06-10T01:58:50;14.90;95.60
54264;DHT22;40178;53.042;6.406;2023-06-10T02:01:22;14.90;99.90
54264;DHT22;40178;53.042;6.406;2023-06-10T02:03:52;14.80;99.90
54264;DHT22;40178;53.042;6.406;2023-06-10T02:06:18;15.00;1.00
54264;DHT22;40178;53.042;6.406;2023-06-10T02:08:43;14.80;99.90
54264;DHT22;40178;53.042;6.406;2023-06-10T02:11:09;14.60;51.20
54264;DHT22;40178;53.042;6.406;2023-06-10T02:13:34;14.80;99.90
54264;DHT22;40178;53.042;6.406;2023-06-10T02:16:00;14.70;99.90
54264;DHT22;40178;53.042;6.406;2023-06-10T02:18:26;14.60;99.90
54264;DHT22;40178;53.042;6.406;2023-06-10T02:20:53;14.40;99.90
54264;DHT22;40178;53.042;6.406;2023-06-10T02:23:21;14.40;1.00
54264;DHT22;40178;53.042;6.406;2023-06-10T02:25:47;14.40;99.90
54264;DHT22;40178;53.042;6.406;2023-06-10T02:28:13;14.40;99.60
54264;DHT22;40178;53.042;6.406;2023-06-10T02:30:42;14.40;99.90
54264;DHT22;40178;53.042;6.406;2023-06-10T02:33:08;14.30;99.90
54264;DHT22;40178;53.042;6.406;2023-06-10T02:35:39;14.40;99.90
54264;DHT22;40178;53.042;6.406;2023-06-10T02:38:05;14.20;90.10
54264;DHT22;40178;53.042;6.406;2023-06-10T02:40:33;14.20;59.90
54264;DHT22;40178;53.042;6.406;2023-06-10T02:42:59;14.40;67.00
54264;DHT22;40178;53.042;6.406;2023-06-10T02:45:25;14.00;99.90
54264;DHT22;40178;53.042;6.406;2023-06-10T02:47:51;14.70;99.90
54264;DHT22;40178;53.042;6.406;2023-06-10T02:50:16;14.40;14.70
54264;DHT22;40178;53.042;6.406;2023-06-10T02:52:42;14.10;1.00
54264;DHT22;40178;53.042;6.406;2023-06-10T02:55:08;14.00;99.90
54264;DHT22;40178;53.042;6.406;2023-06-10T02:57:33;14.00;99.90
54264;DHT22;40178;53.042;6.406;2023-06-10T03:00:06;14.40;99.90
54264;DHT22;40178;53.042;6.406;2023-06-10T03:02:35;13.90;1.00
54264;DHT22;40178;53.042;6.406;2023-06-10T03:05:02;13.90;1.00
54264;DHT22;40178;53.042;6.406;2023-06-10T03:07:28;13.80;1.00
54264;DHT22;40178;53.042;6.406;2023-06-10T03:09:54;13.80;99.90
54264;DHT22;40178;53.042;6.406;2023-06-10T03:12:19;13.70;1.00
54264;DHT22;40178;53.042;6.406;2023-06-10T03:14:45;13.80;1.00
54264;DHT22;40178;53.042;6.406;2023-06-10T03:17:14;14.10;1.00
54264;DHT22;40178;53.042;6.406;2023-06-10T03:19:42;13.80;1.00
54264;DHT22;40178;53.042;6.406;2023-06-10T03:22:17;13.50;1.00
54264;DHT22;40178;53.042;6.406;2023-06-10T03:24:43;13.60;1.00
54264;DHT22;40178;53.042;6.406;2023-06-10T03:27:12;13.60;1.00
54264;DHT22;40178;53.042;6.406;2023-06-10T03:29:39;13.40;1.00
54264;DHT22;40178;53.042;6.406;2023-06-10T03:32:05;13.40;1.00
54264;DHT22;40178;53.042;6.406;2023-06-10T03:34:31;13.50;1.00
54264;DHT22;40178;53.042;6.406;2023-06-10T03:36:57;13.50;1.00
54264;DHT22;40178;53.042;6.406;2023-06-10T03:39:23;13.90;1.00
54264;DHT22;40178;53.042;6.406;2023-06-10T03:41:50;14.00;1.00
54264;DHT22;40178;53.042;6.406;2023-06-10T03:44:17;14.10;1.00
54264;DHT22;40178;53.042;6.406;2023-06-10T03:46:46;13.80;1.00
54264;DHT22;40178;53.042;6.406;2023-06-10T03:49:12;13.90;1.00
54264;DHT22;40178;53.042;6.406;2023-06-10T03:51:40;13.50;18.10
54264;DHT22;40178;53.042;6.406;2023-06-10T03:54:06;13.50;1.00
54264;DHT22;40178;53.042;6.406;2023-06-10T03:56:32;13.80;1.00
54264;DHT22;40178;53.042;6.406;2023-06-10T03:58:58;14.10;1.00
54264;DHT22;40178;53.042;6.406;2023-06-10T04:01:24;13.60;1.00
54264;DHT22;40178;53.042;6.406;2023-06-10T04:03:50;13.60;24.20
54264;DHT22;40178;53.042;6.406;2023-06-10T04:06:20;14.10;19.50
54264;DHT22;40178;53.042;6.406;2023-06-10T04:08:48;13.70;26.10
54264;DHT22;40178;53.042;6.406;2023-06-10T04:11:14;14.10;29.60
54264;DHT22;40178;53.042;6.406;2023-06-10T04:13:39;13.90;25.30
54264;DHT22;40178;53.042;6.406;2023-06-10T04:16:07;13.70;49.80
54264;DHT22;40178;53.042;6.406;2023-06-10T04:18:33;13.70;33.60
54264;DHT22;40178;53.042;6.406;2023-06-10T04:20:58;14.10;49.20
54264;DHT22;40178;53.042;6.406;2023-06-10T04:23:24;14.20;42.40
54264;DHT22;40178;53.042;6.406;2023-06-10T04:25:50;14.00;33.20
54264;DHT22;40178;53.042;6.406;2023-06-10T04:28:15;14.50;20.80
54264;DHT22;40178;53.042;6.406;2023-06-10T04:30:41;14.40;38.00
54264;DHT22;40178;53.042;6.406;2023-06-10T04:33:07;14.30;41.20
54264;DHT22;40178;53.042;6.406;2023-06-10T04:35:34;14.00;39.20
54264;DHT22;40178;53.042;6.406;2023-06-10T04:38:00;14.00;46.10
54264;DHT22;40178;53.042;6.406;2023-06-10T04:40:28;14.10;28.50
54264;DHT22;40178;53.042;6.406;2023-06-10T04:42:53;14.50;50.40
54264;DHT22;40178;53.042;6.406;2023-06-10T04:45:19;14.40;26.80
54264;DHT22;40178;53.042;6.406;2023-06-10T04:47:45;14.10;57.10
54264;DHT22;40178;53.042;6.406;2023-06-10T04:50:11;14.30;65.40
54264;DHT22;40178;53.042;6.406;2023-06-10T04:52:36;14.70;53.80
54264;DHT22;40178;53.042;6.406;2023-06-10T04:55:02;14.40;45.30
54264;DHT22;40178;53.042;6.406;2023-06-10T04:57:28;14.30;59.30
54264;DHT22;40178;53.042;6.406;2023-06-10T04:59:53;14.40;66.40
54264;DHT22;40178;53.042;6.406;2023-06-10T05:02:19;14.80;64.60
54264;DHT22;40178;53.042;6.406;2023-06-10T05:04:45;15.00;70.50
54264;DHT22;40178;53.042;6.406;2023-06-10T05:07:10;14.80;50.00
54264;DHT22;40178;53.042;6.406;2023-06-10T05:09:36;14.90;46.30
54264;DHT22;40178;53.042;6.406;2023-06-10T05:12:03;15.00;46.00
54264;DHT22;40178;53.042;6.406;2023-06-10T05:14:29;15.10;29.50
54264;DHT22;40178;53.042;6.406;2023-06-10T05:16:54;15.20;24.20
54264;DHT22;40178;53.042;6.406;2023-06-10T05:19:20;15.60;10.40
54264;DHT22;40178;53.042;6.406;2023-06-10T05:21:46;15.30;1.00
54264;DHT22;40178;53.042;6.406;2023-06-10T05:24:12;15.70;27.90
54264;DHT22;40178;53.042;6.406;2023-06-10T05:26:37;15.60;1.60
54264;DHT22;40178;53.042;6.406;2023-06-10T05:29:04;15.50;8.50
54264;DHT22;40178;53.042;6.406;2023-06-10T05:31:32;15.60;1.00
54264;DHT22;40178;53.042;6.406;2023-06-10T05:33:58;15.70;1.00
54264;DHT22;40178;53.042;6.406;2023-06-10T05:36:24;15.60;1.00
54264;DHT22;40178;53.042;6.406;2023-06-10T05:38:54;15.90;1.00
54264;DHT22;40178;53.042;6.406;2023-06-10T05:41:19;16.20;1.00
54264;DHT22;40178;53.042;6.406;2023-06-10T05:43:46;15.80;1.00
54264;DHT22;40178;53.042;6.406;2023-06-10T05:46:11;16.10;1.00
54264;DHT22;40178;53.042;6.406;2023-06-10T05:48:37;15.90;1.00
54264;DHT22;40178;53.042;6.406;2023-06-10T05:51:03;16.10;1.00
54264;DHT22;40178;53.042;6.406;2023-06-10T05:53:28;16.10;1.00
54264;DHT22;40178;53.042;6.406;2023-06-10T05:55:55;16.10;1.00
54264;DHT22;40178;53.042;6.406;2023-06-10T05:58:23;16.20;1.00
54264;DHT22;40178;53.042;6.406;2023-06-10T06:00:49;16.30;1.00
54264;DHT22;40178;53.042;6.406;2023-06-10T06:03:15;16.40;1.00
54264;DHT22;40178;53.042;6.406;2023-06-10T06:05:41;16.40;1.00
54264;DHT22;40178;53.042;6.406;2023-06-10T06:08:10;16.50;1.00
54264;DHT22;40178;53.042;6.406;2023-06-10T06:10:36;16.60;1.00
54264;DHT22;40178;53.042;6.406;2023-06-10T06:13:01;16.50;1.00
54264;DHT22;40178;53.042;6.406;2023-06-10T06:15:27;16.70;1.00
54264;DHT22;40178;53.042;6.406;2023-06-10T06:17:53;16.90;1.00
54264;DHT22;40178;53.042;6.406;2023-06-10T06:20:19;16.90;1.00
54264;DHT22;40178;53.042;6.406;2023-06-10T06:22:45;17.10;1.00
54264;DHT22;40178;53.042;6.406;2023-06-10T06:25:11;17.00;99.90
54264;DHT22;40178;53.042;6.406;2023-06-10T06:27:37;17.10;99.90
54264;DHT22;40178;53.042;6.406;2023-06-10T06:30:02;17.30;99.90
54264;DHT22;40178;53.042;6.406;2023-06-10T06:32:28;17.40;99.90
54264;DHT22;40178;53.042;6.406;2023-06-10T06:34:54;17.50;99.90
54264;DHT22;40178;53.042;6.406;2023-06-10T06:37:23;17.60;99.90
54264;DHT22;40178;53.042;6.406;2023-06-10T06:39:53;17.60;99.90
54264;DHT22;40178;53.042;6.406;2023-06-10T06:42:20;17.60;1.00
54264;DHT22;40178;53.042;6.406;2023-06-10T06:44:46;17.80;84.20
54264;DHT22;40178;53.042;6.406;2023-06-10T06:47:12;17.80;1.00
54264;DHT22;40178;53.042;6.406;2023-06-10T06:49:38;17.80;99.90
54264;DHT22;40178;53.042;6.406;2023-06-10T06:52:04;17.90;99.90
54264;DHT22;40178;53.042;6.406;2023-06-10T06:54:30;18.00;99.90
54264;DHT22;40178;53.042;6.406;2023-06-10T06:56:56;18.10;99.90
54264;DHT22;40178;53.042;6.406;2023-06-10T06:59:21;18.30;99.90
54264;DHT22;40178;53.042;6.406;2023-06-10T07:01:47;18.30;99.90
54264;DHT22;40178;53.042;6.406;2023-06-10T07:04:15;18.30;81.30
54264;DHT22;40178;53.042;6.406;2023-06-10T07:06:40;18.50;99.90
54264;DHT22;40178;53.042;6.406;2023-06-10T07:09:07;18.40;99.90
54264;DHT22;40178;53.042;6.406;2023-06-10T07:11:34;18.40;1.00
54264;DHT22;40178;53.042;6.406;2023-06-10T07:14:00;18.50;1.00
54264;DHT22;40178;53.042;6.406;2023-06-10T07:16:25;18.50;1.00
54264;DHT22;40178;53.042;6.406;2023-06-10T07:18:52;18.70;99.90
54264;DHT22;40178;53.042;6.406;2023-06-10T07:21:18;18.70;1.00
54264;DHT22;40178;53.042;6.406;2023-06-10T07:23:44;18.70;1.00
54264;DHT22;40178;53.042;6.406;2023-06-10T07:26:10;18.80;1.00
54264;DHT22;40178;53.042;6.406;2023-06-10T07:28:40;19.00;99.90
54264;DHT22;40178;53.042;6.406;2023-06-10T07:31:07;19.00;99.90
54264;DHT22;40178;53.042;6.406;2023-06-10T07:33:33;19.20;1.00
54264;DHT22;40178;53.042;6.406;2023-06-10T07:35:59;19.20;1.00
54264;DHT22;40178;53.042;6.406;2023-06-10T07:38:26;19.40;41.70
54264;DHT22;40178;53.042;6.406;2023-06-10T07:40:51;19.40;1.00
54264;DHT22;40178;53.042;6.406;2023-06-10T07:43:17;19.50;1.00
54264;DHT22;40178;53.042;6.406;2023-06-10T07:45:43;19.70;99.90
54264;DHT22;40178;53.042;6.406;2023-06-10T07:48:09;19.60;41.30
54264;DHT22;40178;53.042;6.406;2023-06-10T07:50:35;19.60;1.00
54264;DHT22;40178;53.042;6.406;2023-06-10T07:53:01;19.80;1.00
54264;DHT22;40178;53.042;6.406;2023-06-10T07:55:27;19.90;1.00
54264;DHT22;40178;53.042;6.406;2023-06-10T07:57:53;20.00;1.00
54264;DHT22;40178;53.042;6.406;2023-06-10T08:00:19;20.10;99.90
54264;DHT22;40178;53.042;6.406;2023-06-10T08:02:45;20.10;99.90
54264;DHT22;40178;53.042;6.406;2023-06-10T08:05:11;20.20;99.90
54264;DHT22;40178;53.042;6.406;2023-06-10T08:07:36;20.30;99.90
54264;DHT22;40178;53.042;6.406;2023-06-10T08:10:03;20.30;99.90
54264;DHT22;40178;53.042;6.406;2023-06-10T08:12:29;20.40;89.50
54264;DHT22;40178;53.042;6.406;2023-06-10T08:14:55;20.60;75.40
54264;DHT22;40178;53.042;6.406;2023-06-10T08:17:21;20.50;1.00
54264;DHT22;40178;53.042;6.406;2023-06-10T08:19:49;20.60;1.00
54264;DHT22;40178;53.042;6.406;2023-06-10T08:22:15;20.80;1.00
54264;DHT22;40178;53.042;6.406;2023-06-10T08:24:41;20.80;1.00
54264;DHT22;40178;53.042;6.406;2023-06-10T08:27:07;21.00;1.00
54264;DHT22;40178;53.042;6.406;2023-06-10T08:29:32;21.00;1.00
54264;DHT22;40178;53.042;6.406;2023-06-10T08:31:58;21.10;1.00
54264;DHT22;40178;53.042;6.406;2023-06-10T08:34:24;21.10;99.90
54264;DHT22;40178;53.042;6.406;2023-06-10T08:36:50;21.30;1.00
54264;DHT22;40178;53.042;6.406;2023-06-10T08:39:21;21.40;1.00
54264;DHT22;40178;53.042;6.406;2023-06-10T08:42:00;21.40;99.90
54264;DHT22;40178;53.042;6.406;2023-06-10T08:44:29;21.60;99.90
54264;DHT22;40178;53.042;6.406;2023-06-10T08:47:03;21.70;99.90
54264;DHT22;40178;53.042;6.406;2023-06-10T08:49:34;21.80;99.90
54264;DHT22;40178;53.042;6.406;2023-06-10T08:52:03;21.80;99.90
54264;DHT22;40178;53.042;6.406;2023-06-10T08:54:32;21.70;99.90
54264;DHT22;40178;53.042;6.406;2023-06-10T08:56:59;21.80;99.90
54264;DHT22;40178;53.042;6.406;2023-06-10T08:59:27;21.80;99.90
54264;DHT22;40178;53.042;6.406;2023-06-10T09:01:53;22.10;99.90
54264;DHT22;40178;53.042;6.406;2023-06-10T09:04:19;22.20;99.90
54264;DHT22;40178;53.042;6.406;2023-06-10T09:06:47;22.40;99.90
54264;DHT22;40178;53.042;6.406;2023-06-10T09:09:15;22.10;99.90
54264;DHT22;40178;53.042;6.406;2023-06-10T09:11:43;22.40;99.90
54264;DHT22;40178;53.042;6.406;2023-06-10T09:14:09;22.30;99.90
54264;DHT22;40178;53.042;6.406;2023-06-10T09:16:35;22.30;99.90
54264;DHT22;40178;53.042;6.406;2023-06-10T09:19:01;22.30;99.90
54264;DHT22;40178;53.042;6.406;2023-06-10T09:21:33;22.50;99.90
54264;DHT22;40178;53.042;6.406;2023-06-10T09:24:00;22.70;99.90
54264;DHT22;40178;53.042;6.406;2023-06-10T09:26:29;22.80;99.90
54264;DHT22;40178;53.042;6.406;2023-06-10T09:29:07;23.00;99.90
54264;DHT22;40178;53.042;6.406;2023-06-10T09:31:39;23.00;99.90
54264;DHT22;40178;53.042;6.406;2023-06-10T09:34:14;23.10;99.90
54264;DHT22;40178;53.042;6.406;2023-06-10T09:36:41;23.20;96.30
54264;DHT22;40178;53.042;6.406;2023-06-10T09:39:19;23.40;99.90
54264;DHT22;40178;53.042;6.406;2023-06-10T09:41:45;23.40;89.60
54264;DHT22;40178;53.042;6.406;2023-06-10T09:44:13;23.60;90.70
54264;DHT22;40178;53.042;6.406;2023-06-10T09:46:39;23.70;84.20
54264;DHT22;40178;53.042;6.406;2023-06-10T09:49:05;23.90;78.10
54264;DHT22;40178;53.042;6.406;2023-06-10T09:51:32;24.00;66.80
54264;DHT22;40178;53.042;6.406;2023-06-10T09:53:59;24.00;27.70
54264;DHT22;40178;53.042;6.406;2023-06-10T09:56:38;24.00;18.80
54264;DHT22;40178;53.042;6.406;2023-06-10T09:59:08;24.10;23.00
54264;DHT22;40178;53.042;6.406;2023-06-10T10:01:34;24.20;27.80
54264;DHT22;40178;53.042;6.406;2023-06-10T10:04:00;24.50;36.80
54264;DHT22;40178;53.042;6.406;2023-06-10T10:06:27;24.40;29.00
54264;DHT22;40178;53.042;6.406;2023-06-10T10:08:53;24.50;29.10
54264;DHT22;40178;53.042;6.406;2023-06-10T10:11:20;24.50;25.50
54264;DHT22;40178;53.042;6.406;2023-06-10T10:13:48;24.50;14.60
54264;DHT22;40178;53.042;6.406;2023-06-10T10:16:17;24.70;17.20
54264;DHT22;40178;53.042;6.406;2023-06-10T10:18:57;24.80;14.70
54264;DHT22;40178;53.042;6.406;2023-06-10T10:21:27;24.70;1.00
54264;DHT22;40178;53.042;6.406;2023-06-10T10:24:07;24.90;1.00
54264;DHT22;40178;53.042;6.406;2023-06-10T10:26:35;25.00;1.00
54264;DHT22;40178;53.042;6.406;2023-06-10T10:29:16;25.00;1.00
54264;DHT22;40178;53.042;6.406;2023-06-10T10:31:44;25.10;1.00
54264;DHT22;40178;53.042;6.406;2023-06-10T10:34:15;25.20;1.00
54264;DHT22;40178;53.042;6.406;2023-06-10T10:36:42;25.30;1.00
54264;DHT22;40178;53.042;6.406;2023-06-10T10:39:09;25.30;1.00
54264;DHT22;40178;53.042;6.406;2023-06-10T10:41:36;25.50;1.00
54264;DHT22;40178;53.042;6.406;2023-06-10T10:44:04;25.50;1.00
54264;DHT22;40178;53.042;6.406;2023-06-10T10:46:48;25.60;1.00
54264;DHT22;40178;53.042;6.406;2023-06-10T10:49:15;25.50;1.00
54264;DHT22;40178;53.042;6.406;2023-06-10T10:52:00;25.50;1.00
54264;DHT22;40178;53.042;6.406;2023-06-10T10:54:35;25.60;1.00
54264;DHT22;40178;53.042;6.406;2023-06-10T10:57:21;25.70;1.00
54264;DHT22;40178;53.042;6.406;2023-06-10T10:59:56;25.70;1.00
54264;DHT22;40178;53.042;6.406;2023-06-10T11:05:01;26.00;1.00
54264;DHT22;40178;53.042;6.406;2023-06-10T11:07:30;26.00;1.00
54264;DHT22;40178;53.042;6.406;2023-06-10T11:10:03;26.00;1.00
54264;DHT22;40178;53.042;6.406;2023-06-10T11:15:31;26.10;1.00
54264;DHT22;40178;53.042;6.406;2023-06-10T11:18:35;26.20;1.00
54264;DHT22;40178;53.042;6.406;2023-06-10T11:21:05;26.30;1.00
54264;DHT22;40178;53.042;6.406;2023-06-10T11:23:40;26.30;1.00
54264;DHT22;40178;53.042;6.406;2023-06-10T11:29:04;26.30;1.00
54264;DHT22;40178;53.042;6.406;2023-06-10T11:31:43;26.40;1.00
54264;DHT22;40178;53.042;6.406;2023-06-10T11:34:09;26.60;1.00
54264;DHT22;40178;53.042;6.406;2023-06-10T11:36:40;26.70;1.00
54264;DHT22;40178;53.042;6.406;2023-06-10T11:39:08;26.70;1.00
54264;DHT22;40178;53.042;6.406;2023-06-10T11:41:35;26.70;1.00
54264;DHT22;40178;53.042;6.406;2023-06-10T11:44:11;26.70;1.00
54264;DHT22;40178;53.042;6.406;2023-06-10T11:46:37;26.80;1.00
54264;DHT22;40178;53.042;6.406;2023-06-10T11:49:04;26.80;1.00
54264;DHT22;40178;53.042;6.406;2023-06-10T11:51:35;26.90;1.00
54264;DHT22;40178;53.042;6.406;2023-06-10T11:54:03;26.80;1.00
54264;DHT22;40178;53.042;6.406;2023-06-10T11:56:30;26.70;1.00
54264;DHT22;40178;53.042;6.406;2023-06-10T11:59:03;26.90;1.00
54264;DHT22;40178;53.042;6.406;2023-06-10T12:01:33;26.90;1.00
54264;DHT22;40178;53.042;6.406;2023-06-10T12:04:04;26.90;1.00
54264;DHT22;40178;53.042;6.406;2023-06-10T12:06:47;26.90;1.00
54264;DHT22;40178;53.042;6.406;2023-06-10T12:11:49;27.00;1.00
54264;DHT22;40178;53.042;6.406;2023-06-10T12:14:15;27.00;1.00
54264;DHT22;40178;53.042;6.406;2023-06-10T12:16:48;27.00;1.00
54264;DHT22;40178;53.042;6.406;2023-06-10T12:19:14;27.00;1.00
54264;DHT22;40178;53.042;6.406;2023-06-10T12:21:39;27.00;1.00
54264;DHT22;40178;53.042;6.406;2023-06-10T12:24:09;27.10;1.00
54264;DHT22;40178;53.042;6.406;2023-06-10T12:26:42;27.00;1.00
54264;DHT22;40178;53.042;6.406;2023-06-10T12:29:23;27.20;1.00
54264;DHT22;40178;53.042;6.406;2023-06-10T12:32:02;27.10;1.00
54264;DHT22;40178;53.042;6.406;2023-06-10T12:34:39;27.20;1.00
54264;DHT22;40178;53.042;6.406;2023-06-10T12:37:14;27.20;1.00
54264;DHT22;40178;53.042;6.406;2023-06-10T12:39:40;27.20;1.00
54264;DHT22;40178;53.042;6.406;2023-06-10T12:42:06;27.20;1.00
54264;DHT22;40178;53.042;6.406;2023-06-10T12:44:38;27.20;1.00
54264;DHT22;40178;53.042;6.406;2023-06-10T12:47:08;27.20;1.00
54264;DHT22;40178;53.042;6.406;2023-06-10T12:49:36;27.20;1.00
54264;DHT22;40178;53.042;6.406;2023-06-10T12:52:02;27.10;1.00
54264;DHT22;40178;53.042;6.406;2023-06-10T12:54:28;27.20;1.00
54264;DHT22;40178;53.042;6.406;2023-06-10T12:56:53;27.30;1.00
54264;DHT22;40178;53.042;6.406;2023-06-10T12:59:19;27.30;1.00
54264;DHT22;40178;53.042;6.406;2023-06-10T13:01:50;27.40;1.00
54264;DHT22;40178;53.042;6.406;2023-06-10T13:04:16;27.40;1.00
54264;DHT22;40178;53.042;6.406;2023-06-10T13:06:42;27.50;1.00
54264;DHT22;40178;53.042;6.406;2023-06-10T13:09:08;27.50;1.00
54264;DHT22;40178;53.042;6.406;2023-06-10T13:11:33;27.60;1.00
54264;DHT22;40178;53.042;6.406;2023-06-10T13:14:00;27.60;1.00
54264;DHT22;40178;53.042;6.406;2023-06-10T13:16:26;27.60;1.00
54264;DHT22;40178;53.042;6.406;2023-06-10T13:18:53;27.70;1.00
54264;DHT22;40178;53.042;6.406;2023-06-10T13:21:19;27.80;1.00
54264;DHT22;40178;53.042;6.406;2023-06-10T13:23:45;27.70;1.00
54264;DHT22;40178;53.042;6.406;2023-06-10T13:26:14;27.80;1.00
54264;DHT22;40178;53.042;6.406;2023-06-10T13:28:40;27.80;1.00
54264;DHT22;40178;53.042;6.406;2023-06-10T13:31:05;27.90;1.00
54264;DHT22;40178;53.042;6.406;2023-06-10T13:33:31;27.80;1.00
54264;DHT22;40178;53.042;6.406;2023-06-10T13:35:57;27.90;1.00
54264;DHT22;40178;53.042;6.406;2023-06-10T13:38:22;27.90;1.00
54264;DHT22;40178;53.042;6.406;2023-06-10T13:40:48;27.90;1.00
54264;DHT22;40178;53.042;6.406;2023-06-10T13:43:13;27.90;1.00
54264;DHT22;40178;53.042;6.406;2023-06-10T13:45:39;27.90;1.00
54264;DHT22;40178;53.042;6.406;2023-06-10T13:48:06;28.00;1.00
54264;DHT22;40178;53.042;6.406;2023-06-10T13:50:31;27.90;1.00
54264;DHT22;40178;53.042;6.406;2023-06-10T13:52:57;28.00;1.00
54264;DHT22;40178;53.042;6.406;2023-06-10T13:55:23;27.80;1.00
54264;DHT22;40178;53.042;6.406;2023-06-10T13:57:50;28.00;1.00
54264;DHT22;40178;53.042;6.406;2023-06-10T14:00:16;28.20;1.00
54264;DHT22;40178;53.042;6.406;2023-06-10T14:02:42;28.20;1.00
54264;DHT22;40178;53.042;6.406;2023-06-10T14:05:07;28.20;1.00
54264;DHT22;40178;53.042;6.406;2023-06-10T14:07:34;28.20;1.00
54264;DHT22;40178;53.042;6.406;2023-06-10T14:10:00;28.30;1.00
54264;DHT22;40178;53.042;6.406;2023-06-10T14:12:25;28.40;1.00
54264;DHT22;40178;53.042;6.406;2023-06-10T14:14:51;28.50;1.00
54264;DHT22;40178;53.042;6.406;2023-06-10T14:17:16;28.60;1.00
54264;DHT22;40178;53.042;6.406;2023-06-10T14:19:42;28.60;1.00
54264;DHT22;40178;53.042;6.406;2023-06-10T14:22:08;28.70;1.00
54264;DHT22;40178;53.042;6.406;2023-06-10T14:24:34;28.60;1.00
54264;DHT22;40178;53.042;6.406;2023-06-10T14:27:01;28.80;1.00
54264;DHT22;40178;53.042;6.406;2023-06-10T14:29:27;28.80;1.00
54264;DHT22;40178;53.042;6.406;2023-06-10T14:31:54;29.00;1.00
54264;DHT22;40178;53.042;6.406;2023-06-10T14:34:20;29.00;1.00
54264;DHT22;40178;53.042;6.406;2023-06-10T14:36:46;29.10;1.00
54264;DHT22;40178;53.042;6.406;2023-06-10T14:39:11;29.30;1.00
54264;DHT22;40178;53.042;6.406;2023-06-10T14:41:37;29.10;1.00
54264;DHT22;40178;53.042;6.406;2023-06-10T14:44:02;29.30;1.00
54264;DHT22;40178;53.042;6.406;2023-06-10T14:46:28;29.30;1.00
54264;DHT22;40178;53.042;6.406;2023-06-10T14:48:54;29.50;1.00
54264;DHT22;40178;53.042;6.406;2023-06-10T14:51:19;29.80;1.00
54264;DHT22;40178;53.042;6.406;2023-06-10T14:53:46;30.00;1.00
54264;DHT22;40178;53.042;6.406;2023-06-10T14:56:12;30.10;1.00
54264;DHT22;40178;53.042;6.406;2023-06-10T14:58:38;30.30;1.00
54264;DHT22;40178;53.042;6.406;2023-06-10T15:01:03;30.60;1.00
54264;DHT22;40178;53.042;6.406;2023-06-10T15:03:29;30.30;1.00
54264;DHT22;40178;53.042;6.406;2023-06-10T15:05:55;30.60;1.00
54264;DHT22;40178;53.042;6.406;2023-06-10T15:08:20;31.00;99.90
54264;DHT22;40178;53.042;6.406;2023-06-10T15:10:46;30.70;99.90
54264;DHT22;40178;53.042;6.406;2023-06-10T15:13:13;30.70;99.90
54264;DHT22;40178;53.042;6.406;2023-06-10T15:15:39;30.90;99.90
54264;DHT22;40178;53.042;6.406;2023-06-10T15:18:05;31.00;99.90
54264;DHT22;40178;53.042;6.406;2023-06-10T15:20:30;31.30;99.90
54264;DHT22;40178;53.042;6.406;2023-06-10T15:22:56;31.30;99.90
54264;DHT22;40178;53.042;6.406;2023-06-10T15:25:22;31.30;99.90
54264;DHT22;40178;53.042;6.406;2023-06-10T15:27:47;31.60;99.90
54264;DHT22;40178;53.042;6.406;2023-06-10T15:30:13;31.50;99.90
54264;DHT22;40178;53.042;6.406;2023-06-10T15:32:39;31.30;99.90
54264;DHT22;40178;53.042;6.406;2023-06-10T15:35:05;31.60;99.90
54264;DHT22;40178;53.042;6.406;2023-06-10T15:37:30;32.00;99.90
54264;DHT22;40178;53.042;6.406;2023-06-10T15:39:56;32.30;99.90
54264;DHT22;40178;53.042;6.406;2023-06-10T15:42:21;32.10;99.90
54264;DHT22;40178;53.042;6.406;2023-06-10T15:44:48;32.80;99.90
54264;DHT22;40178;53.042;6.406;2023-06-10T15:47:14;32.40;99.90
54264;DHT22;40178;53.042;6.406;2023-06-10T15:49:40;32.80;99.90
54264;DHT22;40178;53.042;6.406;2023-06-10T15:52:06;32.80;99.90
54264;DHT22;40178;53.042;6.406;2023-06-10T15:54:31;32.90;99.90
54264;DHT22;40178;53.042;6.406;2023-06-10T15:56:57;32.50;99.90
54264;DHT22;40178;53.042;6.406;2023-06-10T15:59:23;32.90;99.90